Time;durP1;ratioP1;P1;durP2;ratioP2;P2;SDS_P1;SDS_P2;PMS_P1;PMS_P2;Temp;Humidity;BMP_temperature;BMP_pressure;BME280_temperature;BME280_humidity;BME280_pressure;Samples;Min_cycle;Max_cycle;Signal;HPM_P1;HPM_P2
2021/11/12 00:02:11;;;;;;;50.25;18.90;;;;;;;0.48;100.00;95991.00;5026495;28;20048;-76
2021/11/12 00:12:21;;;;;;;38.35;14.73;;;;;;;0.57;100.00;95986.44;5029907;28;20270;-76
2021/11/12 00:14:49;;;;;;;34.58;15.02;;;;;;;0.52;100.00;95981.84;5029251;28;20052;-77
2021/11/12 00:17:16;;;;;;;44.30;16.05;;;;;;;0.37;100.00;95981.19;5029038;28;20515;-77
2021/11/12 00:19:42;;;;;;;38.92;16.88;;;;;;;0.32;100.00;95980.97;5030272;28;20075;-77
2021/11/12 00:22:09;;;;;;;34.40;16.63;;;;;;;0.23;100.00;95974.34;5045063;28;20049;-77
2021/11/12 00:24:34;;;;;;;78.88;16.90;;;;;;;0.19;100.00;95970.53;5028964;28;20052;-77
2021/11/12 00:27:01;;;;;;;27.77;14.00;;;;;;;0.44;100.00;95973.44;5029409;28;20041;-77
2021/11/12 00:29:27;;;;;;;103.85;15.95;;;;;;;0.13;100.00;95967.75;5030201;28;20091;-77
2021/11/12 00:39:31;;;;;;;39.70;16.85;;;;;;;0.16;100.00;95967.38;5030321;28;20414;-77
2021/11/12 00:47:01;;;;;;;27.23;13.38;;;;;;;0.36;100.00;95966.66;5009809;28;20046;-76
2021/11/12 00:49:31;;;;;;;31.02;14.85;;;;;;;0.38;100.00;95974.22;5021207;28;20110;-76
2021/11/12 00:52:04;;;;;;;71.10;14.63;;;;;;;0.04;100.00;95963.72;5029235;28;20124;-76
2021/11/12 00:54:29;;;;;;;37.90;14.15;;;;;;;0.34;100.00;95973.81;5029259;28;20042;-76
2021/11/12 00:56:55;;;;;;;32.45;13.90;;;;;;;0.39;100.00;95971.44;5029110;28;20041;-75
2021/11/12 00:59:21;;;;;;;34.70;13.75;;;;;;;0.36;100.00;95961.47;5028851;28;20045;-77
2021/11/12 01:01:48;;;;;;;24.30;13.80;;;;;;;0.41;100.00;95969.44;5029081;28;20053;-76
2021/11/12 01:04:17;;;;;;;27.70;13.10;;;;;;;0.32;100.00;95960.25;5028524;28;20045;-76
2021/11/12 01:06:44;;;;;;;28.75;13.93;;;;;;;0.39;100.00;95960.28;5023613;28;20133;-77
2021/11/12 01:09:12;;;;;;;24.17;13.05;;;;;;;0.38;100.00;95969.06;5010310;28;20041;-77
2021/11/12 01:11:39;;;;;;;39.60;15.07;;;;;;;0.26;100.00;95966.19;5024621;28;20041;-77
2021/11/12 01:14:06;;;;;;;30.83;13.55;;;;;;;0.25;100.00;95959.44;5023552;28;20047;-77
2021/11/12 01:16:33;;;;;;;43.83;14.68;;;;;;;0.12;100.00;95960.97;5021148;28;20048;-76
2021/11/12 01:19:00;;;;;;;31.38;13.98;;;;;;;0.23;100.00;95956.22;5029415;28;20041;-76
2021/11/12 01:21:26;;;;;;;27.42;13.90;;;;;;;0.23;100.00;95961.41;5023685;28;20041;-76
2021/11/12 01:23:54;;;;;;;34.42;14.45;;;;;;;0.39;100.00;95961.09;5028988;28;20053;-76
2021/11/12 01:26:21;;;;;;;21.77;13.02;;;;;;;0.36;100.00;95956.31;5027775;28;20169;-77
2021/11/12 01:28:48;;;;;;;22.55;13.48;;;;;;;0.32;100.00;95955.09;5029000;28;20045;-76
2021/11/12 01:31:14;;;;;;;25.02;14.02;;;;;;;0.38;100.00;95956.91;5028794;28;20049;-76
2021/11/12 01:33:41;;;;;;;26.42;13.90;;;;;;;0.32;100.00;95952.50;5028531;28;20053;-75
2021/11/12 01:38:59;;;;;;;26.23;13.43;;;;;;;0.30;100.00;95946.69;5028338;28;20065;-77
2021/11/12 01:41:25;;;;;;;26.02;12.88;;;;;;;0.36;100.00;95953.72;5029637;28;20100;-76
2021/11/12 01:43:55;;;;;;;30.08;12.95;;;;;;;0.28;100.00;95943.53;5028490;28;20045;-77
2021/11/12 01:54:07;;;;;;;23.23;13.20;;;;;;;0.05;100.00;95944.59;5026296;28;20049;-76
2021/11/12 01:59:17;;;;;;;39.40;15.38;;;;;;;-0.17;100.00;95930.97;5029468;28;20037;-76
2021/11/12 02:01:48;;;;;;;53.60;15.63;;;;;;;-0.18;100.00;95930.16;5028128;28;20041;-76
2021/11/12 02:04:21;;;;;;;28.25;14.63;;;;;;;-0.03;100.00;95930.06;5028737;28;20128;-77
2021/11/12 02:06:47;;;;;;;28.67;14.38;;;;;;;0.02;100.00;95924.28;5027418;28;20164;-77
2021/11/12 02:09:20;;;;;;;33.83;13.43;;;;;;;0.11;100.00;95923.13;5029216;28;20124;-77
2021/11/12 02:11:50;;;;;;;36.20;13.82;;;;;;;0.09;100.00;95922.53;5027590;28;20064;-76
2021/11/12 02:14:18;;;;;;;45.92;14.82;;;;;;;-0.02;100.00;95917.91;5042959;28;20045;-76
2021/11/12 02:17:03;;;;;;;28.27;14.18;;;;;;;0.02;100.00;95919.13;5028848;28;20123;-76
2021/11/12 02:19:30;;;;;;;46.45;16.05;;;;;;;-0.23;100.00;95917.03;5029270;28;20060;-77
2021/11/12 02:22:06;;;;;;;46.45;16.83;;;;;;;-0.39;100.00;95906.97;5023881;28;20120;-76
2021/11/12 02:24:34;;;;;;;50.67;18.10;;;;;;;-0.28;100.00;95909.03;5028937;28;20469;-76
2021/11/12 02:27:01;;;;;;;77.72;20.17;;;;;;;-0.38;100.00;95909.34;5043176;28;20069;-76
2021/11/12 02:29:28;;;;;;;89.65;22.83;;;;;;;-0.40;100.00;95905.38;5026902;28;20045;-76
2021/11/12 02:31:53;;;;;;;66.18;23.55;;;;;;;-0.49;100.00;95901.34;5027981;28;20049;-76
2021/11/12 02:34:19;;;;;;;68.82;24.48;;;;;;;-0.48;100.00;95898.56;5027503;28;20076;-77
2021/11/12 02:36:45;;;;;;;72.57;25.48;;;;;;;-0.41;100.00;95885.69;5027281;28;20565;-76
2021/11/12 02:39:13;;;;;;;87.53;25.75;;;;;;;-0.48;100.00;95888.22;5026584;28;20068;-77
2021/11/12 02:41:40;;;;;;;91.55;27.30;;;;;;;-0.44;100.00;95880.91;5027664;28;20051;-77
2021/11/12 02:44:07;;;;;;;75.70;24.23;;;;;;;-0.23;100.00;95885.97;5024816;28;20041;-77
2021/11/12 02:46:33;;;;;;;55.55;22.55;;;;;;;-0.08;100.00;95877.28;5016526;28;20412;-76
2021/11/12 02:48:59;;;;;;;63.10;23.73;;;;;;;-0.18;100.00;95878.41;5024202;28;20041;-76
2021/11/12 02:51:31;;;;;;;59.05;23.10;;;;;;;-0.06;100.00;95880.47;5029797;28;20049;-76
2021/11/12 02:54:00;;;;;;;58.97;22.55;;;;;;;-0.15;100.00;95876.47;5030392;28;20042;-76
2021/11/12 02:56:28;;;;;;;60.80;21.30;;;;;;;-0.32;100.00;95871.59;5031684;28;20041;-76
2021/11/12 02:59:15;;;;;;;85.78;24.55;;;;;;;-0.16;100.00;95870.47;5030136;28;20052;-76
2021/11/12 03:01:46;;;;;;;80.60;25.10;;;;;;;-0.11;100.00;95872.50;5031706;28;20060;-76
2021/11/12 03:04:17;;;;;;;98.75;27.25;;;;;;;-0.10;100.00;95881.84;5030341;28;20152;-76
2021/11/12 03:06:44;;;;;;;119.43;29.13;;;;;;;-0.15;100.00;95872.06;5031174;28;20510;-75
2021/11/12 03:09:11;;;;;;;110.10;30.42;;;;;;;-0.07;100.00;95878.84;5029860;28;20069;-77
2021/11/12 03:11:38;;;;;;;110.30;29.90;;;;;;;-0.14;100.00;95867.69;5031304;28;20037;-75
2021/11/12 03:14:06;;;;;;;108.32;28.88;;;;;;;-0.08;100.00;95872.09;5031385;28;20080;-76
2021/11/12 03:16:33;;;;;;;126.05;31.40;;;;;;;-0.13;100.00;95864.13;5030592;28;20061;-76
2021/11/12 03:18:59;;;;;;;135.38;30.63;;;;;;;-0.02;100.00;95866.16;5029892;28;20399;-76
2021/11/12 03:21:26;;;;;;;132.13;30.65;;;;;;;-0.12;100.00;95865.72;5046840;28;20045;-76
2021/11/12 03:23:58;;;;;;;117.57;32.85;;;;;;;-0.10;100.00;95868.91;5044164;28;20037;-77
2021/11/12 03:26:31;;;;;;;115.43;32.67;;;;;;;-0.05;100.00;95869.13;5027375;28;20072;-77
2021/11/12 03:29:19;;;;;;;87.55;28.33;;;;;;;-0.12;100.00;95866.50;5030610;28;20041;-77
2021/11/12 05:44:07;;;;;;;48.03;18.20;;;;;;;-0.61;100.00;95844.19;5025895;28;20073;-77
2021/11/12 05:57:19;;;;;;;61.22;14.48;;;;;;;-0.46;100.00;95854.41;5029430;28;20029;-78
2021/11/12 05:59:44;;;;;;;36.25;15.48;;;;;;;-0.33;100.00;95854.50;5032699;28;20524;-77
2021/11/12 06:02:10;;;;;;;29.90;13.65;;;;;;;-0.12;100.00;95852.78;5032246;28;20045;-77
2021/11/12 06:04:36;;;;;;;47.33;13.93;;;;;;;-0.18;100.00;95847.38;5031672;28;20064;-76
2021/11/12 06:07:01;;;;;;;27.77;12.18;;;;;;;-0.04;100.00;95847.44;5027728;28;20045;-77
2021/11/12 06:09:28;;;;;;;32.67;13.48;;;;;;;-0.34;100.00;95852.91;5024393;28;20038;-76
2021/11/12 06:11:54;;;;;;;49.00;14.38;;;;;;;-0.38;100.00;95852.47;5032191;28;20158;-76
2021/11/12 06:14:21;;;;;;;58.83;15.43;;;;;;;-0.49;100.00;95854.78;5028879;28;20049;-75
2021/11/12 06:16:47;;;;;;;64.40;15.38;;;;;;;-0.53;100.00;95855.19;5029461;28;20038;-77
2021/11/12 06:19:13;;;;;;;62.90;16.25;;;;;;;-0.55;100.00;95853.78;5028607;28;20124;-77
2021/11/12 06:21:38;;;;;;;57.17;15.73;;;;;;;-0.43;100.00;95846.28;5028251;28;20514;-76
2021/11/12 06:24:04;;;;;;;74.47;14.63;;;;;;;-0.55;100.00;95836.50;5028228;28;20135;-75
2021/11/12 06:26:30;;;;;;;61.05;14.98;;;;;;;-0.45;100.00;95843.09;5028223;28;20056;-76
2021/11/12 06:28:58;;;;;;;54.00;15.25;;;;;;;-0.55;100.00;95843.44;5031571;28;20061;-77
2021/11/12 06:31:24;;;;;;;61.75;15.27;;;;;;;-0.45;100.00;95840.50;5016666;28;20052;-78
2021/11/12 06:33:51;;;;;;;29.35;13.50;;;;;;;-0.21;100.00;95832.25;5029293;28;20057;-77
2021/11/12 06:36:18;;;;;;;29.38;13.73;;;;;;;-0.13;100.00;95833.06;5029720;28;20046;-77
2021/11/12 06:38:45;;;;;;;42.17;14.10;;;;;;;-0.19;100.00;95835.47;5029002;28;20549;-77
2021/11/12 06:41:13;;;;;;;54.88;13.52;;;;;;;-0.26;100.00;95839.00;5028986;28;20050;-76
2021/11/12 06:51:36;;;;;;;38.95;14.38;;;;;;;-0.20;100.00;95833.84;5032797;28;20037;-77
2021/11/12 06:54:02;;;;;;;42.65;16.23;;;;;;;-0.20;100.00;95838.25;5017769;28;20041;-77
2021/11/12 06:56:27;;;;;;;29.35;14.13;;;;;;;-0.19;100.00;95835.47;5033451;28;20060;-77
2021/11/12 06:58:54;;;;;;;33.72;14.82;;;;;;;-0.20;100.00;95835.66;5049066;28;20041;-78
2021/11/12 07:01:19;;;;;;;46.65;15.75;;;;;;;-0.30;100.00;95848.13;5029692;28;20522;-77
2021/11/12 07:03:45;;;;;;;31.77;15.13;;;;;;;-0.28;100.00;95857.28;5025536;28;20045;-76
2021/11/12 07:06:12;;;;;;;57.35;15.45;;;;;;;-0.31;100.00;95837.00;5032294;28;20045;-76
2021/11/12 07:08:38;;;;;;;41.05;16.10;;;;;;;-0.21;100.00;95829.66;5028000;28;20049;-78
2021/11/12 07:11:04;;;;;;;53.88;16.23;;;;;;;-0.24;100.00;95832.63;5023553;28;20050;-79
2021/11/12 07:13:29;;;;;;;55.17;16.65;;;;;;;-0.32;100.00;95830.22;5029926;28;20103;-77
2021/11/12 07:15:59;;;;;;;54.15;16.73;;;;;;;-0.36;100.00;95834.16;5030678;28;20566;-82
2021/11/12 07:18:27;;;;;;;25.33;13.82;;;;;;;0.03;100.00;95837.09;5024555;28;20048;-78
2021/11/12 07:20:54;;;;;;;33.50;14.68;;;;;;;-0.06;100.00;95839.06;5026961;28;20034;-77
2021/11/12 07:23:24;;;;;;;53.25;13.95;;;;;;;-0.04;100.00;95842.28;5028394;28;20049;-76
2021/11/12 07:25:51;;;;;;;24.48;11.90;;;;;;;0.08;100.00;95845.88;5025990;28;20049;-77
2021/11/12 07:28:17;;;;;;;31.58;14.07;;;;;;;-0.01;100.00;95847.06;5017405;28;20054;-76
2021/11/12 07:30:44;;;;;;;44.03;16.05;;;;;;;-0.19;100.00;95850.97;5028670;28;20072;-77
2021/11/12 07:33:13;;;;;;;45.60;14.90;;;;;;;-0.13;100.00;95843.41;5027580;28;20048;-76
2021/11/12 07:35:48;;;;;;;37.38;13.57;;;;;;;0.11;100.00;95850.66;5025146;28;20045;-74
2021/11/12 07:38:19;;;;;;;32.45;13.68;;;;;;;0.16;100.00;95845.72;5022902;28;20038;-76
2021/11/12 07:44:04;;;;;;;46.40;16.40;;;;;;;0.01;100.00;95845.06;5028847;28;20113;-76
2021/11/12 07:48:33;;;;;;;34.30;15.55;;;;;;;-0.09;100.00;95842.03;5032294;28;20037;-76
2021/11/12 07:50:58;;;;;;;31.58;14.13;;;;;;;0.11;100.00;95840.31;5029476;28;20514;-77
2021/11/12 07:53:25;;;;;;;58.90;15.15;;;;;;;-0.05;100.00;95835.50;5033199;28;20041;-77
2021/11/12 07:55:53;;;;;;;36.08;14.98;;;;;;;-0.15;100.00;95837.66;5034509;28;20099;-82
2021/11/12 07:58:20;;;;;;;31.42;14.00;;;;;;;0.02;100.00;95836.31;5037282;28;20407;-79
2021/11/12 08:00:46;;;;;;;31.42;13.43;;;;;;;0.07;100.00;95822.78;5037366;28;20041;-77
2021/11/12 08:03:14;;;;;;;50.42;14.77;;;;;;;0.10;100.00;95828.38;5030616;28;20037;-77
2021/11/12 08:05:41;;;;;;;30.17;13.68;;;;;;;0.01;100.00;95826.94;5028418;28;20548;-75
2021/11/12 08:08:10;;;;;;;35.97;13.50;;;;;;;0.27;100.00;95828.78;5028843;28;20049;-76
2021/11/12 08:10:46;;;;;;;37.80;14.20;;;;;;;0.42;100.00;95831.22;5020921;28;20117;-76
2021/11/12 08:13:16;;;;;;;42.17;15.63;;;;;;;0.33;100.00;95827.22;5031544;28;20455;-76
2021/11/12 08:15:51;;;;;;;39.55;14.27;;;;;;;0.19;100.00;95825.59;5023239;28;20037;-76
2021/11/12 08:21:02;;;;;;;36.83;12.82;;;;;;;0.48;100.00;95830.44;5029173;28;20499;-76
2021/11/12 08:23:42;;;;;;;29.75;12.32;;;;;;;0.43;100.00;95838.00;5029045;28;20041;-75
2021/11/12 08:26:15;;;;;;;37.40;13.27;;;;;;;0.64;100.00;95833.66;5029475;28;20056;-75
2021/11/12 08:34:50;;;;;;;26.33;12.73;;;;;;;0.67;100.00;95812.53;5033301;28;20131;-76
2021/11/12 08:42:30;;;;;;;22.55;12.43;;;;;;;0.98;100.00;95817.09;5031140;28;20119;-77
2021/11/12 08:45:05;;;;;;;22.17;12.45;;;;;;;0.97;100.00;95796.56;5037715;28;20107;-77
2021/11/12 08:47:37;;;;;;;23.88;12.00;;;;;;;0.89;100.00;95804.53;5032232;28;20491;-77
2021/11/12 08:50:05;;;;;;;28.10;12.68;;;;;;;0.81;100.00;95813.31;5032356;28;20046;-75
2021/11/12 08:52:31;;;;;;;30.08;12.77;;;;;;;0.80;100.00;95812.50;5031945;28;20461;-76
2021/11/12 08:55:01;;;;;;;26.35;13.15;;;;;;;0.98;100.00;95809.31;5030544;28;20042;-77
2021/11/12 08:57:27;;;;;;;24.65;12.75;;;;;;;0.83;100.00;95806.94;5030313;28;20041;-78
2021/11/12 08:59:53;;;;;;;25.33;12.40;;;;;;;0.93;100.00;95801.34;5030383;28;20045;-76
2021/11/12 09:02:24;;;;;;;27.30;14.00;;;;;;;0.86;100.00;95806.56;5027529;28;20666;-76
2021/11/12 09:04:50;;;;;;;26.90;13.27;;;;;;;1.02;100.00;95794.16;5018282;28;20457;-77
2021/11/12 09:07:17;;;;;;;29.17;13.68;;;;;;;1.08;100.00;95793.38;5026988;28;20052;-77
2021/11/12 09:09:44;;;;;;;21.23;12.10;;;;;;;1.00;100.00;95783.19;5033868;28;20052;-78
2021/11/12 09:12:13;;;;;;;25.67;12.15;;;;;;;1.47;100.00;95789.06;5032213;28;20123;-75
2021/11/12 09:14:45;;;;;;;21.10;11.48;;;;;;;1.56;100.00;95789.63;5030867;28;20076;-76
2021/11/12 09:17:11;;;;;;;21.05;11.65;;;;;;;1.53;100.00;95783.06;5027535;28;20041;-76
2021/11/12 09:22:34;;;;;;;16.40;9.60;;;;;;;1.74;100.00;95781.19;5021469;28;20057;-77
2021/11/12 09:25:00;;;;;;;16.55;9.40;;;;;;;1.92;100.00;95782.31;5018693;28;20114;-76
2021/11/12 09:27:26;;;;;;;27.67;10.98;;;;;;;1.93;100.00;95771.72;5029882;28;20109;-75
2021/11/12 09:29:52;;;;;;;21.10;11.13;;;;;;;1.64;100.00;95770.44;5029454;28;20037;-76
2021/11/12 09:32:18;;;;;;;27.65;12.48;;;;;;;1.30;100.00;95774.97;5029569;28;20033;-75
2021/11/12 09:34:44;;;;;;;30.02;14.25;;;;;;;1.09;100.00;95783.78;5023177;28;20463;-75
2021/11/12 09:37:19;;;;;;;28.50;14.52;;;;;;;1.27;100.00;95778.75;5017377;28;20041;-75
2021/11/12 09:39:47;;;;;;;27.83;13.48;;;;;;;1.36;100.00;95779.34;5031666;28;20041;-78
2021/11/12 09:42:14;;;;;;;26.42;14.15;;;;;;;1.36;100.00;95774.94;5028167;28;20037;-76
2021/11/12 09:44:39;;;;;;;26.45;12.73;;;;;;;1.46;100.00;95769.31;5027988;28;20148;-75
2021/11/12 09:47:05;;;;;;;24.27;13.50;;;;;;;1.41;100.00;95761.38;5026737;28;20132;-76
2021/11/12 09:49:31;;;;;;;23.98;13.15;;;;;;;1.46;100.00;95763.34;5026874;28;20045;-76
2021/11/12 09:51:58;;;;;;;21.60;11.63;;;;;;;1.82;100.00;95767.97;5026031;28;20495;-76
2021/11/12 09:54:24;;;;;;;22.42;11.40;;;;;;;2.09;100.00;95767.84;5028744;28;20049;-76
2021/11/12 09:56:50;;;;;;;19.65;10.98;;;;;;;2.19;100.00;95773.34;5032164;28;20044;-76
2021/11/12 09:59:16;;;;;;;18.98;10.68;;;;;;;2.08;100.00;95771.44;5034859;28;20067;-76
2021/11/12 10:01:42;;;;;;;23.98;11.85;;;;;;;1.86;100.00;95769.16;5042398;28;20041;-76
2021/11/12 10:04:11;;;;;;;22.10;12.77;;;;;;;1.87;100.00;95770.75;5036831;28;20042;-77
2021/11/12 10:06:40;;;;;;;21.02;11.95;;;;;;;1.95;100.00;95766.31;5027872;28;20486;-75
2021/11/12 10:09:20;;;;;;;21.42;12.00;;;;;;;1.94;100.00;95760.34;5025635;28;20037;-76
2021/11/12 10:11:50;;;;;;;23.75;12.40;;;;;;;1.83;100.00;95750.63;5026376;28;20071;-76
2021/11/12 10:14:25;;;;;;;24.85;13.15;;;;;;;1.81;100.00;95745.63;5026185;28;20450;-75
2021/11/12 10:16:56;;;;;;;26.63;14.25;;;;;;;1.78;100.00;95735.69;5028425;28;20037;-75
2021/11/12 10:19:22;;;;;;;31.13;14.77;;;;;;;1.73;100.00;95730.31;5027221;28;20065;-76
2021/11/12 10:21:47;;;;;;;27.13;15.00;;;;;;;1.84;100.00;95731.44;5027075;28;20643;-76
2021/11/12 10:24:19;;;;;;;27.38;14.57;;;;;;;1.84;100.00;95724.47;5025026;28;20128;-76
2021/11/12 10:26:50;;;;;;;28.25;13.82;;;;;;;1.68;100.00;95722.34;5023076;28;20139;-75
2021/11/12 10:29:23;;;;;;;30.92;15.93;;;;;;;2.00;100.00;95717.19;5028814;28;20041;-77
2021/11/12 10:31:55;;;;;;;30.65;15.65;;;;;;;2.16;100.00;95716.66;5027362;28;20041;-75
2021/11/12 10:34:30;;;;;;;28.88;14.57;;;;;;;2.05;100.00;95714.75;5023430;28;20049;-74
2021/11/12 10:37:02;;;;;;;27.20;14.68;;;;;;;2.23;100.00;95712.22;5020961;28;20691;-75
2021/11/12 10:39:40;;;;;;;25.08;13.18;;;;;;;2.49;100.00;95710.41;5027404;28;20402;-76
2021/11/12 10:42:11;;;;;;;23.17;12.30;;;;;;;2.85;100.00;95708.09;5043551;28;20045;-75
2021/11/12 10:44:41;;;;;;;26.80;13.38;;;;;;;2.57;100.00;95702.34;5017199;28;20048;-76
2021/11/12 10:47:08;;;;;;;25.17;13.27;;;;;;;2.74;100.00;95707.00;5029235;28;20119;-76
2021/11/12 10:49:37;;;;;;;21.10;12.38;;;;;;;2.67;100.00;95707.06;5029020;28;20684;-77
2021/11/12 10:52:11;;;;;;;22.90;12.82;;;;;;;2.84;100.00;95704.69;5026044;28;20046;-76
2021/11/12 10:54:45;;;;;;;24.42;12.18;;;;;;;2.85;100.00;95698.50;5026542;28;20575;-76
2021/11/12 10:57:11;;;;;;;25.85;14.30;;;;;;;2.64;100.00;95691.09;5021433;28;20037;-77
2021/11/12 10:59:52;;;;;;;25.73;14.00;;;;;;;2.67;100.00;95680.28;5024748;28;20047;-79
2021/11/12 11:02:27;;;;;;;25.20;14.20;;;;;;;2.63;100.00;95674.72;5028099;28;20037;-76
2021/11/12 11:04:53;;;;;;;;;;;;;;;2.71;100.00;95686.63;5027201;28;20046;-77
2021/11/12 11:07:26;;;;;;;23.13;12.48;;;;;;;2.90;100.00;95682.25;5035542;28;19988;-76
2021/11/12 11:09:57;;;;;;;20.67;12.43;;;;;;;3.01;100.00;95683.34;5036471;28;20048;-79
2021/11/12 11:12:40;;;;;;;24.23;12.60;;;;;;;3.06;100.00;95675.66;5051449;28;20051;-75
2021/11/12 11:15:15;;;;;;;24.67;13.10;;;;;;;2.80;100.00;95674.94;5026464;28;20049;-76
2021/11/12 11:17:43;;;;;;;24.45;13.57;;;;;;;2.74;100.00;95675.81;5033337;28;20038;-76
2021/11/12 11:20:12;;;;;;;24.70;13.98;;;;;;;2.83;100.00;95671.13;5025975;28;20115;-76
2021/11/12 11:22:46;;;;;;;33.13;14.30;;;;;;;2.91;100.00;95674.22;5033218;28;20140;-76
2021/11/12 11:25:12;;;;;;;26.73;14.63;;;;;;;2.73;100.00;95680.22;5037003;28;20538;-77
2021/11/12 11:27:38;;;;;;;27.20;12.80;;;;;;;3.00;100.00;95679.13;5033808;28;20037;-76
2021/11/12 11:30:05;;;;;;;22.58;12.95;;;;;;;2.98;100.00;95670.78;5033166;28;20045;-77
2021/11/12 11:32:32;;;;;;;25.50;13.43;;;;;;;2.91;100.00;95671.63;5034460;28;20038;-77
2021/11/12 11:34:58;;;;;;;24.40;13.02;;;;;;;2.70;100.00;95664.25;5031416;28;20037;-77
2021/11/12 11:37:25;;;;;;;28.20;13.50;;;;;;;2.78;100.00;95671.78;5036373;28;20170;-77
2021/11/12 11:39:53;;;;;;;26.65;15.50;;;;;;;2.65;100.00;95661.53;5036689;28;20111;-80
2021/11/12 11:42:19;;;;;;;24.02;13.25;;;;;;;2.59;100.00;95660.56;5031522;28;20088;-76
2021/11/12 11:44:45;;;;;;;25.75;13.70;;;;;;;2.86;100.00;95653.28;5030980;28;20045;-77
2021/11/12 11:47:11;;;;;;;27.80;15.48;;;;;;;2.91;100.00;95640.44;5034845;28;20049;-77
2021/11/12 11:49:37;;;;;;;27.58;14.27;;;;;;;2.80;100.00;95643.75;5030080;28;20465;-79
2021/11/12 11:52:04;;;;;;;27.70;14.00;;;;;;;2.86;100.00;95642.91;5030847;28;20044;-77
2021/11/12 11:54:47;;;;;;;28.35;14.07;;;;;;;2.95;100.00;95636.38;5031395;28;20388;-79
2021/11/12 11:57:16;;;;;;;30.00;14.88;;;;;;;3.01;100.00;95644.34;5031875;28;20520;-76
2021/11/12 11:59:44;;;;;;;26.45;14.43;;;;;;;2.90;100.00;95644.06;5038795;28;20044;-75
2021/11/12 12:02:19;;;;;;;23.88;14.10;;;;;;;2.82;100.00;95631.34;5034603;28;20095;-76
2021/11/12 12:04:52;;;;;;;27.52;13.95;;;;;;;2.76;100.00;95634.81;5029964;28;20037;-77
2021/11/12 12:07:23;;;;;;;24.25;13.48;;;;;;;3.00;100.00;95633.13;5019933;28;20046;-77
2021/11/12 12:09:54;;;;;;;23.67;12.80;;;;;;;2.87;100.00;95631.47;5034792;28;20049;-76
2021/11/12 12:12:29;;;;;;;29.83;14.07;;;;;;;2.97;100.00;95632.78;5035247;28;20046;-76
2021/11/12 12:15:03;;;;;;;24.48;14.02;;;;;;;3.03;100.00;95643.13;5034780;28;20498;-76
2021/11/12 12:17:32;;;;;;;25.15;13.48;;;;;;;3.01;100.00;95633.94;5035833;28;20517;-77
2021/11/12 13:22:35;;;;;;;30.38;14.43;;;;;;;2.65;100.00;95583.56;5032456;28;20042;-77
2021/11/12 13:25:01;;;;;;;29.48;13.48;;;;;;;2.74;100.00;95582.25;5031695;28;20076;-77
2021/11/12 13:27:29;;;;;;;27.90;14.20;;;;;;;2.69;100.00;95589.91;5032523;28;20053;-77
2021/11/12 13:29:55;;;;;;;40.90;15.52;;;;;;;2.46;100.00;95596.53;5032112;28;20064;-76
2021/11/12 13:32:21;;;;;;;43.65;16.38;;;;;;;2.49;100.00;95590.91;5031890;28;20041;-77
2021/11/12 13:34:48;;;;;;;42.85;15.00;;;;;;;2.49;100.00;95596.13;5031968;28;20048;-77
2021/11/12 13:37:21;;;;;;;31.17;14.75;;;;;;;2.67;100.00;95591.91;5030960;28;20041;-77
2021/11/12 13:40:20;;;;;;;32.30;15.15;;;;;;;2.63;100.00;95575.19;5031239;28;20388;-77
2021/11/12 13:42:48;;;;;;;31.75;15.38;;;;;;;2.62;100.00;95578.81;5029931;28;20115;-77
2021/11/12 13:45:22;;;;;;;32.22;15.52;;;;;;;2.60;100.00;95582.41;5032358;28;20060;-77
2021/11/12 13:48:12;;;;;;;36.08;15.13;;;;;;;2.53;100.00;95576.50;5031779;28;20037;-77
2021/11/12 13:51:02;;;;;;;36.45;14.98;;;;;;;2.59;100.00;95575.63;5032124;28;20041;-77
2021/11/12 13:53:32;;;;;;;47.63;15.13;;;;;;;2.51;100.00;95572.50;5032886;28;20391;-77
2021/11/12 13:55:59;;;;;;;44.53;15.57;;;;;;;2.47;100.00;95574.75;5031779;28;20064;-77
2021/11/12 13:58:27;;;;;;;40.65;17.58;;;;;;;2.47;100.00;95572.16;5030765;28;20418;-77
2021/11/12 14:00:56;;;;;;;47.95;16.38;;;;;;;2.39;100.00;95585.44;5030406;28;20037;-76
2021/11/12 14:03:33;;;;;;;52.65;17.55;;;;;;;2.39;100.00;95580.22;5029709;28;20037;-77
2021/11/12 14:06:04;;;;;;;38.88;15.77;;;;;;;2.39;100.00;95575.81;5045530;28;20112;-77
2021/11/12 14:09:01;;;;;;;32.67;15.02;;;;;;;2.44;100.00;95567.38;5031381;28;20128;-77
2021/11/12 14:11:29;;;;;;;31.88;15.90;;;;;;;2.50;100.00;95561.34;5031644;28;20053;-76
2021/11/12 14:13:59;;;;;;;46.20;17.52;;;;;;;2.47;100.00;95572.16;5031095;28;20450;-77
2021/11/12 14:16:51;;;;;;;58.17;18.92;;;;;;;2.40;100.00;95571.44;5030905;28;20037;-77
2021/11/12 14:19:37;;;;;;;57.20;18.48;;;;;;;2.40;100.00;95561.84;5029134;28;20045;-77
2021/11/12 14:22:09;;;;;;;39.85;16.77;;;;;;;2.42;100.00;95564.22;5030647;28;20384;-77
2021/11/12 14:27:23;;;;;;;33.58;15.15;;;;;;;2.53;100.00;95566.09;5030539;28;20176;-77
2021/11/12 14:38:14;;;;;;;35.35;13.40;;;;;;;2.89;100.00;95550.69;5030658;28;20053;-77
2021/11/12 14:46:51;;;;;;;24.15;11.75;;;;;;;2.69;100.00;95543.16;5031523;28;20124;-77
2021/11/12 14:54:37;;;;;;;32.90;15.30;;;;;;;2.52;100.00;95548.91;5015799;28;20069;-77
2021/11/12 14:57:09;;;;;;;37.72;15.02;;;;;;;2.44;100.00;95549.19;5023005;28;20045;-76
2021/11/12 14:59:39;;;;;;;38.15;14.90;;;;;;;2.36;100.00;95544.31;5035238;28;20498;-76
2021/11/12 15:02:07;;;;;;;37.78;15.25;;;;;;;2.38;100.00;95552.66;5034872;28;20046;-76
2021/11/12 15:04:32;;;;;;;40.92;15.82;;;;;;;2.42;100.00;95548.63;5026080;28;20391;-77
2021/11/12 15:06:59;;;;;;;40.60;15.35;;;;;;;2.45;100.00;95548.19;5030126;28;20065;-77
2021/11/12 15:09:29;;;;;;;29.52;13.20;;;;;;;2.53;100.00;95550.50;5051016;28;20045;-77
2021/11/12 15:11:55;;;;;;;32.92;14.70;;;;;;;2.49;100.00;95551.16;5035301;28;20043;-77
2021/11/12 15:14:33;;;;;;;38.28;14.10;;;;;;;2.40;100.00;95540.28;5035066;28;20054;-77
2021/11/12 15:16:59;;;;;;;48.08;15.52;;;;;;;2.39;100.00;95552.44;5034744;28;20037;-77
2021/11/12 15:19:25;;;;;;;31.88;14.27;;;;;;;2.49;100.00;95544.16;5034741;28;20045;-77
2021/11/12 15:22:02;;;;;;;36.08;14.85;;;;;;;2.57;100.00;95541.28;5033697;28;20048;-77
2021/11/12 15:24:39;;;;;;;28.75;12.80;;;;;;;2.55;100.00;95548.47;5033854;28;20056;-77
2021/11/12 15:29:40;;;;;;;40.65;15.13;;;;;;;2.34;100.00;95541.13;5036216;28;20557;-77
2021/11/12 15:35:10;;;;;;;34.05;15.15;;;;;;;2.86;100.00;95538.13;5009172;28;20420;-77
2021/11/12 15:45:27;;;;;;;32.20;14.68;;;;;;;2.82;100.00;95531.78;5026619;28;20041;-78
2021/11/12 15:48:08;;;;;;;30.67;13.27;;;;;;;2.71;100.00;95525.50;5038837;28;20036;-76
2021/11/12 15:53:28;;;;;;;28.27;13.48;;;;;;;2.70;100.00;95521.31;5054162;28;20034;-75
2021/11/12 16:01:27;;;;;;;30.35;13.52;;;;;;;2.84;100.00;95525.34;5059929;28;20053;-76
2021/11/12 16:25:13;;;;;;;45.42;15.77;;;;;;;2.50;100.00;95535.38;5032662;28;20085;-75
2021/11/12 16:27:47;;;;;;;54.50;18.38;;;;;;;2.45;100.00;95542.22;5032324;28;20463;-75
2021/11/12 16:30:15;;;;;;;51.40;17.40;;;;;;;2.42;100.00;95548.63;5031482;28;20053;-75
2021/11/12 16:32:45;;;;;;;74.18;17.20;;;;;;;2.46;100.00;95534.22;5025273;28;20183;-77
2021/11/12 16:35:15;;;;;;;34.13;14.48;;;;;;;2.64;100.00;95537.78;5028662;28;20054;-76
2021/11/12 16:37:43;;;;;;;32.17;14.30;;;;;;;2.81;100.00;95541.38;5015978;28;20041;-77
2021/11/12 16:40:33;;;;;;;35.42;14.73;;;;;;;2.85;100.00;95537.34;5018486;28;20462;-77
2021/11/12 16:57:05;;;;;;;27.70;13.52;;;;;;;2.66;100.00;95548.75;5029127;28;20128;-77
2021/11/12 17:00:22;;;;;;;39.88;14.23;;;;;;;2.50;100.00;95545.75;5030732;28;20041;-77
2021/11/12 17:02:34;;;;;;;31.02;13.00;;;;;;;2.57;100.00;95543.88;5024901;28;20137;-77
2021/11/12 17:13:02;;;;;;;29.88;12.90;;;;;;;2.77;100.00;95517.66;5027878;28;20040;-76
2021/11/12 17:16:03;;;;;;;39.33;13.70;;;;;;;2.59;100.00;95531.44;5015784;28;20054;-76
2021/11/12 17:46:03;;;;;;;44.63;13.37;;;;;;;2.50;100.00;95550.94;5020937;28;20083;-76
2021/11/12 17:48:41;;;;;;;27.42;11.27;;;;;;;2.46;100.00;95554.97;5018780;28;20283;-76
2021/11/12 17:51:37;;;;;;;24.67;11.10;;;;;;;2.44;100.00;95549.19;5022236;28;20495;-75